sensor_id;sensor_type;location;lat;lon;timestamp;temperature;humidity
17944;DHT22;9097;47.028;15.444;2023-01-01T00:02:33;2.70;99.90
17944;DHT22;9097;47.028;15.444;2023-01-01T00:05:37;2.70;99.90
17944;DHT22;9097;47.028;15.444;2023-01-01T00:08:40;2.70;99.90
17944;DHT22;9097;47.028;15.444;2023-01-01T00:11:46;2.70;99.90
17944;DHT22;9097;47.028;15.444;2023-01-01T00:14:49;2.60;99.90
17944;DHT22;9097;47.028;15.444;2023-01-01T00:17:52;2.60;99.90
17944;DHT22;9097;47.028;15.444;2023-01-01T00:21:01;2.60;99.90
17944;DHT22;9097;47.028;15.444;2023-01-01T00:27:08;2.40;99.90
17944;DHT22;9097;47.028;15.444;2023-01-01T00:30:13;2.10;99.90
17944;DHT22;9097;47.028;15.444;2023-01-01T00:33:17;2.40;99.90
17944;DHT22;9097;47.028;15.444;2023-01-01T00:36:21;1.60;99.90
17944;DHT22;9097;47.028;15.444;2023-01-01T00:39:24;2.30;99.90
17944;DHT22;9097;47.028;15.444;2023-01-01T00:42:28;2.20;99.90
17944;DHT22;9097;47.028;15.444;2023-01-01T00:45:30;2.20;99.90
17944;DHT22;9097;47.028;15.444;2023-01-01T00:48:32;2.00;99.90
17944;DHT22;9097;47.028;15.444;2023-01-01T00:51:35;2.00;99.90
17944;DHT22;9097;47.028;15.444;2023-01-01T00:54:37;2.30;99.90
17944;DHT22;9097;47.028;15.444;2023-01-01T00:57:41;2.30;99.90
17944;DHT22;9097;47.028;15.444;2023-01-01T01:00:44;2.40;99.90
17944;DHT22;9097;47.028;15.444;2023-01-01T01:03:47;2.30;99.90
17944;DHT22;9097;47.028;15.444;2023-01-01T01:06:49;2.30;99.90
17944;DHT22;9097;47.028;15.444;2023-01-01T01:09:53;2.60;99.90
17944;DHT22;9097;47.028;15.444;2023-01-01T01:12:56;2.50;99.90
17944;DHT22;9097;47.028;15.444;2023-01-01T01:15:59;2.50;99.90
17944;DHT22;9097;47.028;15.444;2023-01-01T01:19:04;2.30;99.90
17944;DHT22;9097;47.028;15.444;2023-01-01T01:22:06;2.40;99.90
17944;DHT22;9097;47.028;15.444;2023-01-01T01:25:09;2.40;99.90
17944;DHT22;9097;47.028;15.444;2023-01-01T01:28:13;2.10;99.90
17944;DHT22;9097;47.028;15.444;2023-01-01T01:31:16;2.20;99.90
17944;DHT22;9097;47.028;15.444;2023-01-01T01:34:19;2.30;99.90
17944;DHT22;9097;47.028;15.444;2023-01-01T01:37:22;2.40;99.90
17944;DHT22;9097;47.028;15.444;2023-01-01T01:40:25;2.30;99.90
17944;DHT22;9097;47.028;15.444;2023-01-01T01:43:49;2.20;99.90
17944;DHT22;9097;47.028;15.444;2023-01-01T01:46:52;2.30;99.90
17944;DHT22;9097;47.028;15.444;2023-01-01T01:49:58;2.40;99.90
17944;DHT22;9097;47.028;15.444;2023-01-01T01:53:05;2.40;99.90
17944;DHT22;9097;47.028;15.444;2023-01-01T01:56:12;2.30;99.90
17944;DHT22;9097;47.028;15.444;2023-01-01T01:59:20;2.30;99.90
17944;DHT22;9097;47.028;15.444;2023-01-01T02:02:38;2.20;99.90
17944;DHT22;9097;47.028;15.444;2023-01-01T02:05:43;2.40;99.90
17944;DHT22;9097;47.028;15.444;2023-01-01T02:08:46;2.00;99.90
17944;DHT22;9097;47.028;15.444;2023-01-01T02:11:50;2.00;99.90
17944;DHT22;9097;47.028;15.444;2023-01-01T02:14:54;1.90;99.90
17944;DHT22;9097;47.028;15.444;2023-01-01T02:18:00;1.90;99.90
17944;DHT22;9097;47.028;15.444;2023-01-01T02:21:06;2.10;99.90
17944;DHT22;9097;47.028;15.444;2023-01-01T02:24:42;2.10;99.90
17944;DHT22;9097;47.028;15.444;2023-01-01T02:27:53;2.10;99.90
17944;DHT22;9097;47.028;15.444;2023-01-01T02:31:01;1.90;99.90
17944;DHT22;9097;47.028;15.444;2023-01-01T02:34:07;1.90;99.90
17944;DHT22;9097;47.028;15.444;2023-01-01T02:37:13;1.80;99.90
17944;DHT22;9097;47.028;15.444;2023-01-01T02:40:17;1.60;99.90
17944;DHT22;9097;47.028;15.444;2023-01-01T02:43:21;1.50;99.90
17944;DHT22;9097;47.028;15.444;2023-01-01T02:46:30;1.50;99.90
17944;DHT22;9097;47.028;15.444;2023-01-01T02:49:35;1.60;99.90
17944;DHT22;9097;47.028;15.444;2023-01-01T02:52:55;1.70;99.90
17944;DHT22;9097;47.028;15.444;2023-01-01T02:56:03;1.80;99.90
17944;DHT22;9097;47.028;15.444;2023-01-01T02:59:17;1.80;99.90
17944;DHT22;9097;47.028;15.444;2023-01-01T03:02:48;1.80;99.90
17944;DHT22;9097;47.028;15.444;2023-01-01T03:05:59;1.80;99.90
17944;DHT22;9097;47.028;15.444;2023-01-01T03:09:25;1.70;99.90
17944;DHT22;9097;47.028;15.444;2023-01-01T03:12:32;1.70;99.90
17944;DHT22;9097;47.028;15.444;2023-01-01T03:15:45;1.80;99.90
17944;DHT22;9097;47.028;15.444;2023-01-01T03:18:57;1.90;99.90
17944;DHT22;9097;47.028;15.444;2023-01-01T03:22:13;1.90;99.90
17944;DHT22;9097;47.028;15.444;2023-01-01T03:25:19;1.80;99.90
17944;DHT22;9097;47.028;15.444;2023-01-01T03:28:25;1.80;99.90
17944;DHT22;9097;47.028;15.444;2023-01-01T03:31:29;1.70;99.90
17944;DHT22;9097;47.028;15.444;2023-01-01T03:34:37;1.90;99.90
17944;DHT22;9097;47.028;15.444;2023-01-01T03:37:42;2.00;99.90
17944;DHT22;9097;47.028;15.444;2023-01-01T03:40:49;2.00;99.90
17944;DHT22;9097;47.028;15.444;2023-01-01T03:43:55;2.00;99.90
17944;DHT22;9097;47.028;15.444;2023-01-01T03:47:02;1.90;99.90
17944;DHT22;9097;47.028;15.444;2023-01-01T03:50:08;2.20;99.90
17944;DHT22;9097;47.028;15.444;2023-01-01T03:53:18;2.20;99.90
17944;DHT22;9097;47.028;15.444;2023-01-01T03:56:29;2.20;99.90
17944;DHT22;9097;47.028;15.444;2023-01-01T03:59:38;2.20;99.90
17944;DHT22;9097;47.028;15.444;2023-01-01T04:02:47;2.10;99.90
17944;DHT22;9097;47.028;15.444;2023-01-01T04:05:51;2.00;99.90
17944;DHT22;9097;47.028;15.444;2023-01-01T04:08:57;2.00;99.90
17944;DHT22;9097;47.028;15.444;2023-01-01T04:12:00;1.90;99.90
17944;DHT22;9097;47.028;15.444;2023-01-01T04:15:05;1.90;99.90
17944;DHT22;9097;47.028;15.444;2023-01-01T04:18:08;1.90;99.90
17944;DHT22;9097;47.028;15.444;2023-01-01T04:21:12;1.90;99.90
17944;DHT22;9097;47.028;15.444;2023-01-01T04:24:15;2.00;99.90
17944;DHT22;9097;47.028;15.444;2023-01-01T04:27:17;2.00;99.90
17944;DHT22;9097;47.028;15.444;2023-01-01T04:30:19;2.10;99.90
17944;DHT22;9097;47.028;15.444;2023-01-01T04:33:22;2.10;99.90
17944;DHT22;9097;47.028;15.444;2023-01-01T04:36:26;2.00;99.90
17944;DHT22;9097;47.028;15.444;2023-01-01T04:39:28;2.10;99.90
17944;DHT22;9097;47.028;15.444;2023-01-01T04:42:31;2.10;99.90
17944;DHT22;9097;47.028;15.444;2023-01-01T04:45:34;2.20;99.90
17944;DHT22;9097;47.028;15.444;2023-01-01T04:48:38;2.20;99.90
17944;DHT22;9097;47.028;15.444;2023-01-01T04:51:41;2.30;99.90
17944;DHT22;9097;47.028;15.444;2023-01-01T04:54:46;2.30;99.90
17944;DHT22;9097;47.028;15.444;2023-01-01T04:57:48;2.30;99.90
17944;DHT22;9097;47.028;15.444;2023-01-01T05:00:50;2.30;99.90
17944;DHT22;9097;47.028;15.444;2023-01-01T05:03:53;2.50;99.90
17944;DHT22;9097;47.028;15.444;2023-01-01T05:06:57;2.40;99.90
17944;DHT22;9097;47.028;15.444;2023-01-01T05:10:00;2.40;99.90
17944;DHT22;9097;47.028;15.444;2023-01-01T05:13:06;2.40;99.90
17944;DHT22;9097;47.028;15.444;2023-01-01T05:16:10;2.40;99.90
17944;DHT22;9097;47.028;15.444;2023-01-01T05:19:12;2.40;99.90
17944;DHT22;9097;47.028;15.444;2023-01-01T05:22:16;2.40;99.90
17944;DHT22;9097;47.028;15.444;2023-01-01T05:25:21;2.50;99.90
17944;DHT22;9097;47.028;15.444;2023-01-01T05:28:24;2.60;99.90
17944;DHT22;9097;47.028;15.444;2023-01-01T05:31:28;2.50;99.90
17944;DHT22;9097;47.028;15.444;2023-01-01T05:34:31;2.30;99.90
17944;DHT22;9097;47.028;15.444;2023-01-01T05:37:36;2.40;99.90
17944;DHT22;9097;47.028;15.444;2023-01-01T05:40:38;2.30;99.90
17944;DHT22;9097;47.028;15.444;2023-01-01T05:43:43;2.40;99.90
17944;DHT22;9097;47.028;15.444;2023-01-01T05:46:45;2.40;99.90
17944;DHT22;9097;47.028;15.444;2023-01-01T05:49:47;2.40;99.90
17944;DHT22;9097;47.028;15.444;2023-01-01T05:52:51;2.40;99.90
17944;DHT22;9097;47.028;15.444;2023-01-01T05:55:54;2.40;99.90
17944;DHT22;9097;47.028;15.444;2023-01-01T05:58:56;2.40;99.90
17944;DHT22;9097;47.028;15.444;2023-01-01T06:01:59;2.40;99.90
17944;DHT22;9097;47.028;15.444;2023-01-01T06:05:02;2.40;99.90
17944;DHT22;9097;47.028;15.444;2023-01-01T06:08:06;2.40;99.90
17944;DHT22;9097;47.028;15.444;2023-01-01T06:11:10;2.40;99.90
17944;DHT22;9097;47.028;15.444;2023-01-01T06:14:13;2.40;99.90
17944;DHT22;9097;47.028;15.444;2023-01-01T06:17:16;2.40;99.90
17944;DHT22;9097;47.028;15.444;2023-01-01T06:20:19;2.40;99.90
17944;DHT22;9097;47.028;15.444;2023-01-01T06:23:23;2.30;99.90
17944;DHT22;9097;47.028;15.444;2023-01-01T06:26:28;2.30;99.90
17944;DHT22;9097;47.028;15.444;2023-01-01T06:29:31;2.40;99.90
17944;DHT22;9097;47.028;15.444;2023-01-01T06:32:34;2.40;99.90
17944;DHT22;9097;47.028;15.444;2023-01-01T06:35:36;2.50;99.90
17944;DHT22;9097;47.028;15.444;2023-01-01T06:38:42;2.50;99.90
17944;DHT22;9097;47.028;15.444;2023-01-01T06:41:45;2.50;99.90
17944;DHT22;9097;47.028;15.444;2023-01-01T06:44:47;2.50;99.90
17944;DHT22;9097;47.028;15.444;2023-01-01T06:47:51;2.50;99.90
17944;DHT22;9097;47.028;15.444;2023-01-01T06:50:54;2.40;99.90
17944;DHT22;9097;47.028;15.444;2023-01-01T06:53:59;2.40;99.90
17944;DHT22;9097;47.028;15.444;2023-01-01T06:57:02;2.40;99.90
17944;DHT22;9097;47.028;15.444;2023-01-01T07:00:06;2.30;99.90
17944;DHT22;9097;47.028;15.444;2023-01-01T07:03:09;2.10;99.90
17944;DHT22;9097;47.028;15.444;2023-01-01T07:06:12;2.10;99.90
17944;DHT22;9097;47.028;15.444;2023-01-01T07:09:16;2.00;99.90
17944;DHT22;9097;47.028;15.444;2023-01-01T07:12:18;2.20;99.90
17944;DHT22;9097;47.028;15.444;2023-01-01T07:15:21;2.20;99.90
17944;DHT22;9097;47.028;15.444;2023-01-01T07:18:25;2.30;99.90
17944;DHT22;9097;47.028;15.444;2023-01-01T07:21:29;2.30;99.90
17944;DHT22;9097;47.028;15.444;2023-01-01T07:24:35;2.40;99.90
17944;DHT22;9097;47.028;15.444;2023-01-01T07:27:38;2.50;99.90
17944;DHT22;9097;47.028;15.444;2023-01-01T07:30:42;2.50;99.90
17944;DHT22;9097;47.028;15.444;2023-01-01T07:33:44;2.60;99.90
17944;DHT22;9097;47.028;15.444;2023-01-01T07:36:47;2.60;99.90
17944;DHT22;9097;47.028;15.444;2023-01-01T07:39:51;2.70;99.90
17944;DHT22;9097;47.028;15.444;2023-01-01T07:42:54;2.80;99.90
17944;DHT22;9097;47.028;15.444;2023-01-01T07:45:57;2.90;99.90
17944;DHT22;9097;47.028;15.444;2023-01-01T07:48:59;3.00;99.90
17944;DHT22;9097;47.028;15.444;2023-01-01T07:52:03;3.10;99.90
17944;DHT22;9097;47.028;15.444;2023-01-01T07:55:11;3.10;99.90
17944;DHT22;9097;47.028;15.444;2023-01-01T07:58:14;3.30;99.90
17944;DHT22;9097;47.028;15.444;2023-01-01T08:01:16;3.40;99.90
17944;DHT22;9097;47.028;15.444;2023-01-01T08:04:19;3.40;99.90
17944;DHT22;9097;47.028;15.444;2023-01-01T08:07:22;3.50;99.90
17944;DHT22;9097;47.028;15.444;2023-01-01T08:10:25;3.60;99.90
17944;DHT22;9097;47.028;15.444;2023-01-01T08:13:28;3.80;99.90
17944;DHT22;9097;47.028;15.444;2023-01-01T08:16:34;3.90;99.90
17944;DHT22;9097;47.028;15.444;2023-01-01T08:19:36;4.00;99.90
17944;DHT22;9097;47.028;15.444;2023-01-01T08:22:39;4.10;99.90
17944;DHT22;9097;47.028;15.444;2023-01-01T08:25:43;4.20;99.90
17944;DHT22;9097;47.028;15.444;2023-01-01T08:28:46;4.20;99.90
17944;DHT22;9097;47.028;15.444;2023-01-01T08:31:48;4.50;99.90
17944;DHT22;9097;47.028;15.444;2023-01-01T08:34:52;4.60;99.90
17944;DHT22;9097;47.028;15.444;2023-01-01T08:37:54;4.70;99.90
17944;DHT22;9097;47.028;15.444;2023-01-01T08:40:59;4.70;99.90
17944;DHT22;9097;47.028;15.444;2023-01-01T08:50:09;5.20;99.90
17944;DHT22;9097;47.028;15.444;2023-01-01T08:53:11;5.80;99.90
17944;DHT22;9097;47.028;15.444;2023-01-01T08:56:15;6.10;99.90
17944;DHT22;9097;47.028;15.444;2023-01-01T09:02:23;7.40;99.90
17944;DHT22;9097;47.028;15.444;2023-01-01T09:29:51;13.60;99.90
17944;DHT22;9097;47.028;15.444;2023-01-01T09:32:54;13.20;99.90
17944;DHT22;9097;47.028;15.444;2023-01-01T09:36:11;12.70;99.90
17944;DHT22;9097;47.028;15.444;2023-01-01T09:42:32;12.20;99.90
17944;DHT22;9097;47.028;15.444;2023-01-01T09:48:47;12.70;99.90
17944;DHT22;9097;47.028;15.444;2023-01-01T10:13:41;16.10;99.90
17944;DHT22;9097;47.028;15.444;2023-01-01T10:16:45;15.10;99.90
17944;DHT22;9097;47.028;15.444;2023-01-01T10:19:51;15.70;99.90
17944;DHT22;9097;47.028;15.444;2023-01-01T10:26:05;16.90;99.90
17944;DHT22;9097;47.028;15.444;2023-01-01T11:46:51;16.90;99.90
17944;DHT22;9097;47.028;15.444;2023-01-01T11:49:56;13.60;99.90
17944;DHT22;9097;47.028;15.444;2023-01-01T11:53:17;13.70;99.90
17944;DHT22;9097;47.028;15.444;2023-01-01T11:56:21;13.70;99.90
17944;DHT22;9097;47.028;15.444;2023-01-01T11:59:27;13.70;99.90
17944;DHT22;9097;47.028;15.444;2023-01-01T12:02:35;13.70;99.90
17944;DHT22;9097;47.028;15.444;2023-01-01T12:05:46;13.60;99.90
17944;DHT22;9097;47.028;15.444;2023-01-01T12:08:53;13.50;99.90
17944;DHT22;9097;47.028;15.444;2023-01-01T12:12:02;13.40;99.90
17944;DHT22;9097;47.028;15.444;2023-01-01T12:15:17;13.40;99.90
17944;DHT22;9097;47.028;15.444;2023-01-01T12:18:26;13.30;99.90
17944;DHT22;9097;47.028;15.444;2023-01-01T12:21:33;13.20;99.90
17944;DHT22;9097;47.028;15.444;2023-01-01T12:24:36;13.10;99.90
17944;DHT22;9097;47.028;15.444;2023-01-01T12:27:53;13.10;99.90
17944;DHT22;9097;47.028;15.444;2023-01-01T12:31:02;13.00;99.90
17944;DHT22;9097;47.028;15.444;2023-01-01T13:02:27;12.90;99.90
17944;DHT22;9097;47.028;15.444;2023-01-01T13:05:36;12.60;99.90
17944;DHT22;9097;47.028;15.444;2023-01-01T14:37:22;10.60;99.90
17944;DHT22;9097;47.028;15.444;2023-01-01T14:40:27;10.40;99.90
17944;DHT22;9097;47.028;15.444;2023-01-01T14:43:32;10.30;99.90
17944;DHT22;9097;47.028;15.444;2023-01-01T14:46:39;10.40;99.90
17944;DHT22;9097;47.028;15.444;2023-01-01T14:49:42;10.10;99.90
17944;DHT22;9097;47.028;15.444;2023-01-01T19:06:42;4.60;99.90
17944;DHT22;9097;47.028;15.444;2023-01-01T19:16:01;4.50;99.90
